sensor_id;sensor_type;location;lat;lon;timestamp;pressure;altitude;pressure_sealevel;temperature
6498;BMP280;3282;48.358;10.958;2022-08-19T00:01:57;95735.22;;;20.83
6498;BMP280;3282;48.358;10.958;2022-08-19T00:04:33;95748.69;;;20.87
6498;BMP280;3282;48.358;10.958;2022-08-19T00:07:06;95747.47;;;20.88
6498;BMP280;3282;48.358;10.958;2022-08-19T00:09:32;95747.16;;;20.86
6498;BMP280;3282;48.358;10.958;2022-08-19T00:11:59;95748.06;;;20.82
6498;BMP280;3282;48.358;10.958;2022-08-19T00:14:27;95734.59;;;20.79
6498;BMP280;3282;48.358;10.958;2022-08-19T00:16:54;95743.31;;;20.74
6498;BMP280;3282;48.358;10.958;2022-08-19T00:19:22;95749.50;;;20.74
6498;BMP280;3282;48.358;10.958;2022-08-19T00:21:48;95744.97;;;20.71
6498;BMP280;3282;48.358;10.958;2022-08-19T00:24:15;95752.84;;;20.78
6498;BMP280;3282;48.358;10.958;2022-08-19T00:26:44;95747.75;;;20.80
6498;BMP280;3282;48.358;10.958;2022-08-19T00:29:13;95750.47;;;20.80
6498;BMP280;3282;48.358;10.958;2022-08-19T00:31:40;95760.75;;;20.86
6498;BMP280;3282;48.358;10.958;2022-08-19T00:34:09;95761.38;;;20.90
6498;BMP280;3282;48.358;10.958;2022-08-19T00:36:39;95746.84;;;20.83
6498;BMP280;3282;48.358;10.958;2022-08-19T00:39:06;95755.94;;;20.90
6498;BMP280;3282;48.358;10.958;2022-08-19T00:41:33;95756.06;;;20.86
6498;BMP280;3282;48.358;10.958;2022-08-19T00:46:28;95750.78;;;20.82
6498;BMP280;3282;48.358;10.958;2022-08-19T00:48:56;95739.91;;;20.82
6498;BMP280;3282;48.358;10.958;2022-08-19T00:51:28;95740.34;;;20.81
6498;BMP280;3282;48.358;10.958;2022-08-19T00:53:58;95737.31;;;20.79
6498;BMP280;3282;48.358;10.958;2022-08-19T00:56:25;95737.44;;;20.75
6498;BMP280;3282;48.358;10.958;2022-08-19T00:58:55;95739.50;;;20.71
6498;BMP280;3282;48.358;10.958;2022-08-19T01:01:22;95751.59;;;20.70
6498;BMP280;3282;48.358;10.958;2022-08-19T01:03:49;95740.38;;;20.68
6498;BMP280;3282;48.358;10.958;2022-08-19T01:06:26;95736.47;;;20.69
6498;BMP280;3282;48.358;10.958;2022-08-19T01:08:54;95739.50;;;20.71
6498;BMP280;3282;48.358;10.958;2022-08-19T01:11:21;95747.22;;;20.73
6498;BMP280;3282;48.358;10.958;2022-08-19T01:13:52;95754.63;;;20.72
6498;BMP280;3282;48.358;10.958;2022-08-19T01:16:21;95749.00;;;20.66
6498;BMP280;3282;48.358;10.958;2022-08-19T01:18:48;95747.91;;;20.64
6498;BMP280;3282;48.358;10.958;2022-08-19T01:21:24;95743.69;;;20.63
6498;BMP280;3282;48.358;10.958;2022-08-19T01:23:53;95750.19;;;20.65
6498;BMP280;3282;48.358;10.958;2022-08-19T01:26:22;95749.44;;;20.65
6498;BMP280;3282;48.358;10.958;2022-08-19T01:28:52;95752.16;;;20.65
6498;BMP280;3282;48.358;10.958;2022-08-19T01:31:27;95749.00;;;20.66
6498;BMP280;3282;48.358;10.958;2022-08-19T01:33:59;95753.97;;;20.68
6498;BMP280;3282;48.358;10.958;2022-08-19T01:36:36;95743.88;;;20.68
6498;BMP280;3282;48.358;10.958;2022-08-19T01:39:08;95744.31;;;20.67
6498;BMP280;3282;48.358;10.958;2022-08-19T01:41:35;95736.50;;;20.56
6498;BMP280;3282;48.358;10.958;2022-08-19T01:44:04;95756.19;;;20.60
6498;BMP280;3282;48.358;10.958;2022-08-19T01:46:46;95755.13;;;20.58
6498;BMP280;3282;48.358;10.958;2022-08-19T01:49:15;95756.31;;;20.56
6498;BMP280;3282;48.358;10.958;2022-08-19T01:51:42;95753.16;;;20.58
6498;BMP280;3282;48.358;10.958;2022-08-19T01:54:10;95743.50;;;20.57
6498;BMP280;3282;48.358;10.958;2022-08-19T01:56:37;95736.97;;;20.54
6498;BMP280;3282;48.358;10.958;2022-08-19T01:59:09;95743.94;;;20.55
6498;BMP280;3282;48.358;10.958;2022-08-19T02:01:39;95741.13;;;20.46
6498;BMP280;3282;48.358;10.958;2022-08-19T02:04:06;95759.72;;;20.48
6498;BMP280;3282;48.358;10.958;2022-08-19T02:06:33;95778.94;;;20.53
6498;BMP280;3282;48.358;10.958;2022-08-19T02:09:00;95782.22;;;20.48
6498;BMP280;3282;48.358;10.958;2022-08-19T02:11:32;95786.75;;;20.51
6498;BMP280;3282;48.358;10.958;2022-08-19T02:14:02;95773.63;;;20.50
6498;BMP280;3282;48.358;10.958;2022-08-19T02:16:29;95747.78;;;20.45
6498;BMP280;3282;48.358;10.958;2022-08-19T02:18:57;95752.53;;;20.54
6498;BMP280;3282;48.358;10.958;2022-08-19T02:21:27;95754.50;;;20.53
6498;BMP280;3282;48.358;10.958;2022-08-19T02:23:55;95761.44;;;20.54
6498;BMP280;3282;48.358;10.958;2022-08-19T02:26:21;95761.88;;;20.53
6498;BMP280;3282;48.358;10.958;2022-08-19T02:28:53;95763.81;;;20.52
6498;BMP280;3282;48.358;10.958;2022-08-19T02:31:23;95759.94;;;20.53
6498;BMP280;3282;48.358;10.958;2022-08-19T02:33:51;95753.72;;;20.53
6498;BMP280;3282;48.358;10.958;2022-08-19T02:36:22;95751.44;;;20.51
6498;BMP280;3282;48.358;10.958;2022-08-19T02:38:50;95758.81;;;20.51
6498;BMP280;3282;48.358;10.958;2022-08-19T02:41:22;95758.81;;;20.51
6498;BMP280;3282;48.358;10.958;2022-08-19T02:43:56;95753.84;;;20.49
6498;BMP280;3282;48.358;10.958;2022-08-19T02:46:47;95757.44;;;20.46
6498;BMP280;3282;48.358;10.958;2022-08-19T02:49:17;95763.00;;;20.42
6498;BMP280;3282;48.358;10.958;2022-08-19T02:51:46;95750.09;;;20.34
6498;BMP280;3282;48.358;10.958;2022-08-19T02:54:13;95762.22;;;20.42
6498;BMP280;3282;48.358;10.958;2022-08-19T02:56:41;95751.47;;;20.38
6498;BMP280;3282;48.358;10.958;2022-08-19T02:59:08;95758.31;;;20.43
6498;BMP280;3282;48.358;10.958;2022-08-19T03:01:38;95762.56;;;20.44
6498;BMP280;3282;48.358;10.958;2022-08-19T03:04:07;95768.53;;;20.39
6498;BMP280;3282;48.358;10.958;2022-08-19T03:06:39;95759.09;;;20.30
6498;BMP280;3282;48.358;10.958;2022-08-19T03:09:09;95752.38;;;20.35
6498;BMP280;3282;48.358;10.958;2022-08-19T03:11:36;95757.03;;;20.35
6498;BMP280;3282;48.358;10.958;2022-08-19T03:14:06;95749.31;;;20.33
6498;BMP280;3282;48.358;10.958;2022-08-19T03:16:40;95739.69;;;20.32
6498;BMP280;3282;48.358;10.958;2022-08-19T03:19:07;95734.66;;;20.30
6498;BMP280;3282;48.358;10.958;2022-08-19T03:21:34;95718.34;;;20.30
6498;BMP280;3282;48.358;10.958;2022-08-19T03:24:03;95731.94;;;20.30
6498;BMP280;3282;48.358;10.958;2022-08-19T03:26:30;95740.09;;;20.30
6498;BMP280;3282;48.358;10.958;2022-08-19T03:28:57;95733.91;;;20.30
6498;BMP280;3282;48.358;10.958;2022-08-19T03:31:26;95738.25;;;20.27
6498;BMP280;3282;48.358;10.958;2022-08-19T03:34:32;95740.34;;;20.23
6498;BMP280;3282;48.358;10.958;2022-08-19T03:37:06;95748.06;;;20.25
6498;BMP280;3282;48.358;10.958;2022-08-19T03:39:36;95753.06;;;20.26
6498;BMP280;3282;48.358;10.958;2022-08-19T03:42:03;95758.03;;;20.28
6498;BMP280;3282;48.358;10.958;2022-08-19T03:44:50;95758.03;;;20.28
6498;BMP280;3282;48.358;10.958;2022-08-19T03:47:16;95752.59;;;20.28
6498;BMP280;3282;48.358;10.958;2022-08-19T03:49:43;95760.75;;;20.28
6498;BMP280;3282;48.358;10.958;2022-08-19T03:52:10;95769.34;;;20.26
6498;BMP280;3282;48.358;10.958;2022-08-19T03:54:37;95758.47;;;20.26
6498;BMP280;3282;48.358;10.958;2022-08-19T03:57:05;95740.28;;;20.14
6498;BMP280;3282;48.358;10.958;2022-08-19T03:59:34;95753.91;;;20.23
6498;BMP280;3282;48.358;10.958;2022-08-19T04:02:02;95754.66;;;20.24
6498;BMP280;3282;48.358;10.958;2022-08-19T04:04:29;95734.94;;;20.10
6498;BMP280;3282;48.358;10.958;2022-08-19T04:06:58;95735.69;;;20.11
6498;BMP280;3282;48.358;10.958;2022-08-19T04:09:25;95747.66;;;20.13
6498;BMP280;3282;48.358;10.958;2022-08-19T04:11:54;95748.81;;;20.12
6498;BMP280;3282;48.358;10.958;2022-08-19T04:14:27;95739.16;;;20.11
6498;BMP280;3282;48.358;10.958;2022-08-19T04:16:58;95727.09;;;20.12
6498;BMP280;3282;48.358;10.958;2022-08-19T04:19:26;95710.31;;;20.05
6498;BMP280;3282;48.358;10.958;2022-08-19T04:21:53;95704.88;;;20.05
6498;BMP280;3282;48.358;10.958;2022-08-19T04:24:21;95716.16;;;20.03
6498;BMP280;3282;48.358;10.958;2022-08-19T04:26:51;95726.13;;;20.06
6498;BMP280;3282;48.358;10.958;2022-08-19T04:29:23;95719.50;;;20.07
6498;BMP280;3282;48.358;10.958;2022-08-19T04:31:52;95727.66;;;20.07
6498;BMP280;3282;48.358;10.958;2022-08-19T04:34:22;95733.84;;;20.08
6498;BMP280;3282;48.358;10.958;2022-08-19T04:36:51;95745.38;;;20.12
6498;BMP280;3282;48.358;10.958;2022-08-19T04:39:22;95732.34;;;20.07
6498;BMP280;3282;48.358;10.958;2022-08-19T04:41:49;95754.47;;;20.18
6498;BMP280;3282;48.358;10.958;2022-08-19T04:44:35;95764.13;;;20.19
6498;BMP280;3282;48.358;10.958;2022-08-19T04:47:11;95771.53;;;20.19
6498;BMP280;3282;48.358;10.958;2022-08-19T04:49:38;95773.03;;;20.20
6498;BMP280;3282;48.358;10.958;2022-08-19T04:52:04;95781.06;;;20.23
6498;BMP280;3282;48.358;10.958;2022-08-19T04:54:31;95783.47;;;20.21
6498;BMP280;3282;48.358;10.958;2022-08-19T04:57:06;95774.03;;;20.13
6498;BMP280;3282;48.358;10.958;2022-08-19T04:59:35;95790.22;;;20.16
6498;BMP280;3282;48.358;10.958;2022-08-19T05:02:02;95783.06;;;20.10
6498;BMP280;3282;48.358;10.958;2022-08-19T05:04:29;95790.34;;;20.13
6498;BMP280;3282;48.358;10.958;2022-08-19T05:06:59;95795.88;;;20.22
6498;BMP280;3282;48.358;10.958;2022-08-19T05:09:28;95794.97;;;20.25
6498;BMP280;3282;48.358;10.958;2022-08-19T05:12:15;95788.38;;;20.26
6498;BMP280;3282;48.358;10.958;2022-08-19T05:14:46;95793.78;;;20.26
6498;BMP280;3282;48.358;10.958;2022-08-19T05:17:15;95792.59;;;20.27
6498;BMP280;3282;48.358;10.958;2022-08-19T05:19:54;95795.19;;;20.31
6498;BMP280;3282;48.358;10.958;2022-08-19T05:22:40;95792.00;;;20.33
6498;BMP280;3282;48.358;10.958;2022-08-19T05:25:13;95798.22;;;20.33
6498;BMP280;3282;48.358;10.958;2022-08-19T05:27:41;95796.59;;;20.36
6498;BMP280;3282;48.358;10.958;2022-08-19T05:30:10;95806.59;;;20.39
6498;BMP280;3282;48.358;10.958;2022-08-19T05:32:38;95789.94;;;20.37
6498;BMP280;3282;48.358;10.958;2022-08-19T05:35:05;95798.78;;;20.41
6498;BMP280;3282;48.358;10.958;2022-08-19T05:37:33;95801.81;;;20.43
6498;BMP280;3282;48.358;10.958;2022-08-19T05:40:02;95797.88;;;20.44
6498;BMP280;3282;48.358;10.958;2022-08-19T05:42:29;95793.66;;;20.43
6498;BMP280;3282;48.358;10.958;2022-08-19T05:45:00;95801.25;;;20.48
6498;BMP280;3282;48.358;10.958;2022-08-19T05:47:27;95798.84;;;20.50
6498;BMP280;3282;48.358;10.958;2022-08-19T05:49:53;95796.84;;;20.51
6498;BMP280;3282;48.358;10.958;2022-08-19T05:52:20;95791.13;;;20.49
6498;BMP280;3282;48.358;10.958;2022-08-19T05:54:51;95790.25;;;20.52
6498;BMP280;3282;48.358;10.958;2022-08-19T05:57:18;95785.38;;;20.47
6498;BMP280;3282;48.358;10.958;2022-08-19T05:59:45;95796.44;;;20.52
6498;BMP280;3282;48.358;10.958;2022-08-19T06:02:27;95791.88;;;20.49
6498;BMP280;3282;48.358;10.958;2022-08-19T06:04:54;95794.47;;;20.53
6498;BMP280;3282;48.358;10.958;2022-08-19T06:07:20;95788.91;;;20.56
6498;BMP280;3282;48.358;10.958;2022-08-19T06:09:47;95784.69;;;20.55
6498;BMP280;3282;48.358;10.958;2022-08-19T06:12:30;95783.06;;;20.58
6498;BMP280;3282;48.358;10.958;2022-08-19T06:15:07;95781.09;;;20.59
6498;BMP280;3282;48.358;10.958;2022-08-19T06:17:34;95783.34;;;20.60
6498;BMP280;3282;48.358;10.958;2022-08-19T06:20:06;95788.91;;;20.56
6498;BMP280;3282;48.358;10.958;2022-08-19T06:22:44;95786.63;;;20.55
6498;BMP280;3282;48.358;10.958;2022-08-19T06:25:13;95792.06;;;20.55
6498;BMP280;3282;48.358;10.958;2022-08-19T06:27:40;95804.47;;;20.56
6498;BMP280;3282;48.358;10.958;2022-08-19T06:30:27;95806.88;;;20.54
6498;BMP280;3282;48.358;10.958;2022-08-19T06:32:54;95805.66;;;20.55
6498;BMP280;3282;48.358;10.958;2022-08-19T06:35:20;95807.19;;;20.56
6498;BMP280;3282;48.358;10.958;2022-08-19T06:37:47;95810.00;;;20.52
6498;BMP280;3282;48.358;10.958;2022-08-19T06:40:14;95804.81;;;20.45
6498;BMP280;3282;48.358;10.958;2022-08-19T06:42:41;95815.44;;;20.52
6498;BMP280;3282;48.358;10.958;2022-08-19T06:45:21;95823.47;;;20.56
6498;BMP280;3282;48.358;10.958;2022-08-19T06:48:00;95826.97;;;20.56
6498;BMP280;3282;48.358;10.958;2022-08-19T06:50:26;95825.91;;;20.54
6498;BMP280;3282;48.358;10.958;2022-08-19T06:52:53;95829.03;;;20.52
6498;BMP280;3282;48.358;10.958;2022-08-19T06:55:20;95825.69;;;20.48
6498;BMP280;3282;48.358;10.958;2022-08-19T06:57:47;95828.72;;;20.50
6498;BMP280;3282;48.358;10.958;2022-08-19T07:00:14;95821.31;;;20.51
6498;BMP280;3282;48.358;10.958;2022-08-19T07:02:43;95817.00;;;20.53
6498;BMP280;3282;48.358;10.958;2022-08-19T07:05:23;95809.16;;;20.55
6498;BMP280;3282;48.358;10.958;2022-08-19T07:07:49;95810.66;;;20.56
6498;BMP280;3282;48.358;10.958;2022-08-19T07:10:18;95806.78;;;20.58
6498;BMP280;3282;48.358;10.958;2022-08-19T07:12:45;95802.84;;;20.59
6498;BMP280;3282;48.358;10.958;2022-08-19T07:15:12;95811.31;;;20.61
6498;BMP280;3282;48.358;10.958;2022-08-19T07:17:39;95807.38;;;20.62
6498;BMP280;3282;48.358;10.958;2022-08-19T07:20:08;95811.19;;;20.64
6498;BMP280;3282;48.358;10.958;2022-08-19T07:22:39;95803.16;;;20.61
6498;BMP280;3282;48.358;10.958;2022-08-19T07:25:08;95804.88;;;20.67
6498;BMP280;3282;48.358;10.958;2022-08-19T07:27:34;95803.69;;;20.68
6498;BMP280;3282;48.358;10.958;2022-08-19T07:30:02;95806.25;;;20.72
6498;BMP280;3282;48.358;10.958;2022-08-19T07:32:29;95798.13;;;20.72
6498;BMP280;3282;48.358;10.958;2022-08-19T07:34:57;95796.91;;;20.73
6498;BMP280;3282;48.358;10.958;2022-08-19T07:37:26;95794.19;;;20.73
6498;BMP280;3282;48.358;10.958;2022-08-19T07:39:59;95797.69;;;20.74
6498;BMP280;3282;48.358;10.958;2022-08-19T07:42:26;95791.47;;;20.73
6498;BMP280;3282;48.358;10.958;2022-08-19T07:44:54;95798.13;;;20.72
6498;BMP280;3282;48.358;10.958;2022-08-19T07:47:21;95804.75;;;20.71
6498;BMP280;3282;48.358;10.958;2022-08-19T07:50:09;95795.09;;;20.70
6498;BMP280;3282;48.358;10.958;2022-08-19T07:52:38;95802.59;;;20.66
6498;BMP280;3282;48.358;10.958;2022-08-19T07:55:16;95802.25;;;20.64
6498;BMP280;3282;48.358;10.958;2022-08-19T07:58:03;95799.47;;;20.54
6498;BMP280;3282;48.358;10.958;2022-08-19T08:00:31;95811.44;;;20.57
6498;BMP280;3282;48.358;10.958;2022-08-19T08:02:57;95805.78;;;20.51
6498;BMP280;3282;48.358;10.958;2022-08-19T08:05:24;95810.44;;;20.51
6498;BMP280;3282;48.358;10.958;2022-08-19T08:08:11;95807.22;;;20.43
6498;BMP280;3282;48.358;10.958;2022-08-19T08:10:57;95795.72;;;20.39
6498;BMP280;3282;48.358;10.958;2022-08-19T08:13:24;95796.69;;;20.45
6498;BMP280;3282;48.358;10.958;2022-08-19T08:15:52;95800.59;;;20.44
6498;BMP280;3282;48.358;10.958;2022-08-19T08:18:21;95800.38;;;20.38
6498;BMP280;3282;48.358;10.958;2022-08-19T08:20:53;95807.00;;;20.37
6498;BMP280;3282;48.358;10.958;2022-08-19T08:23:21;95801.59;;;20.37
6498;BMP280;3282;48.358;10.958;2022-08-19T08:25:48;95810.06;;;20.39
6498;BMP280;3282;48.358;10.958;2022-08-19T08:28:16;95808.22;;;20.36
6498;BMP280;3282;48.358;10.958;2022-08-19T08:30:44;95803.34;;;20.31
6498;BMP280;3282;48.358;10.958;2022-08-19T08:33:14;95806.25;;;20.24
6498;BMP280;3282;48.358;10.958;2022-08-19T08:36:04;95809.31;;;20.26
6498;BMP280;3282;48.358;10.958;2022-08-19T08:38:31;95811.28;;;20.25
6498;BMP280;3282;48.358;10.958;2022-08-19T08:41:18;95814.88;;;20.22
6498;BMP280;3282;48.358;10.958;2022-08-19T08:43:48;95809.44;;;20.22
6498;BMP280;3282;48.358;10.958;2022-08-19T08:46:20;95808.44;;;20.16
6498;BMP280;3282;48.358;10.958;2022-08-19T08:51:59;95806.38;;;20.20
6498;BMP280;3282;48.358;10.958;2022-08-19T08:54:37;95809.44;;;20.22
6498;BMP280;3282;48.358;10.958;2022-08-19T08:57:11;95811.59;;;20.27
6498;BMP280;3282;48.358;10.958;2022-08-19T08:59:40;95813.75;;;20.33
6498;BMP280;3282;48.358;10.958;2022-08-19T09:02:08;95814.50;;;20.33
6498;BMP280;3282;48.358;10.958;2022-08-19T09:04:38;95816.91;;;20.31
6498;BMP280;3282;48.358;10.958;2022-08-19T09:07:46;95819.41;;;20.38
6498;BMP280;3282;48.358;10.958;2022-08-19T09:16:20;95825.06;;;20.44
6498;BMP280;3282;48.358;10.958;2022-08-19T09:19:02;95833.63;;;20.42
6498;BMP280;3282;48.358;10.958;2022-08-19T09:21:32;95828.19;;;20.42
6498;BMP280;3282;48.358;10.958;2022-08-19T09:24:00;95835.69;;;20.38
6498;BMP280;3282;48.358;10.958;2022-08-19T09:26:29;95828.66;;;20.41
6498;BMP280;3282;48.358;10.958;2022-08-19T09:29:17;95836.81;;;20.41
6498;BMP280;3282;48.358;10.958;2022-08-19T09:31:44;95830.91;;;20.42
6498;BMP280;3282;48.358;10.958;2022-08-19T09:34:10;95833.97;;;20.45
6498;BMP280;3282;48.358;10.958;2022-08-19T09:36:47;95832.00;;;20.45
6498;BMP280;3282;48.358;10.958;2022-08-19T09:39:21;95828.84;;;20.47
6498;BMP280;3282;48.358;10.958;2022-08-19T09:41:48;95826.75;;;20.51
6498;BMP280;3282;48.358;10.958;2022-08-19T09:44:17;95838.72;;;20.53
6498;BMP280;3282;48.358;10.958;2022-08-19T09:46:44;95840.25;;;20.54
6498;BMP280;3282;48.358;10.958;2022-08-19T09:49:17;95833.16;;;20.57
6498;BMP280;3282;48.358;10.958;2022-08-19T09:51:44;95833.94;;;20.58
6498;BMP280;3282;48.358;10.958;2022-08-19T09:54:17;95839.66;;;20.60
6498;BMP280;3282;48.358;10.958;2022-08-19T09:56:51;95834.56;;;20.62
6498;BMP280;3282;48.358;10.958;2022-08-19T09:59:18;95831.09;;;20.61
6498;BMP280;3282;48.358;10.958;2022-08-19T10:01:44;95833.06;;;20.61
6498;BMP280;3282;48.358;10.958;2022-08-19T10:04:13;95834.56;;;20.62
6498;BMP280;3282;48.358;10.958;2022-08-19T10:06:48;95841.97;;;20.61
6498;BMP280;3282;48.358;10.958;2022-08-19T10:09:19;95841.97;;;20.61
6498;BMP280;3282;48.358;10.958;2022-08-19T10:11:59;95847.81;;;20.60
6498;BMP280;3282;48.358;10.958;2022-08-19T10:14:28;95844.81;;;20.58
6498;BMP280;3282;48.358;10.958;2022-08-19T10:16:57;95846.44;;;20.55
6498;BMP280;3282;48.358;10.958;2022-08-19T10:19:24;95849.72;;;20.50
6498;BMP280;3282;48.358;10.958;2022-08-19T10:21:53;95839.97;;;20.39
6498;BMP280;3282;48.358;10.958;2022-08-19T10:24:25;95848.22;;;20.36
6498;BMP280;3282;48.358;10.958;2022-08-19T10:26:53;95850.28;;;20.32
6498;BMP280;3282;48.358;10.958;2022-08-19T10:29:24;95845.28;;;20.30
6498;BMP280;3282;48.358;10.958;2022-08-19T10:32:03;95851.16;;;20.28
6498;BMP280;3282;48.358;10.958;2022-08-19T10:34:38;95852.34;;;20.27
6498;BMP280;3282;48.358;10.958;2022-08-19T10:37:15;95854.28;;;20.27
6498;BMP280;3282;48.358;10.958;2022-08-19T10:39:54;95852.34;;;20.27
6498;BMP280;3282;48.358;10.958;2022-08-19T10:42:21;95852.78;;;20.26
6498;BMP280;3282;48.358;10.958;2022-08-19T10:44:50;95864.41;;;20.26
6498;BMP280;3282;48.358;10.958;2022-08-19T10:47:17;95852.91;;;20.22
6498;BMP280;3282;48.358;10.958;2022-08-19T10:49:54;95864.63;;;20.19
6498;BMP280;3282;48.358;10.958;2022-08-19T10:52:41;95861.59;;;20.17
6498;BMP280;3282;48.358;10.958;2022-08-19T10:55:21;95858.53;;;20.15
6498;BMP280;3282;48.358;10.958;2022-08-19T10:58:11;95867.56;;;20.12
6498;BMP280;3282;48.358;10.958;2022-08-19T11:00:38;95871.13;;;20.09
6498;BMP280;3282;48.358;10.958;2022-08-19T11:03:06;95882.13;;;20.05
6498;BMP280;3282;48.358;10.958;2022-08-19T11:05:35;95882.19;;;20.01
6498;BMP280;3282;48.358;10.958;2022-08-19T11:08:06;95883.84;;;19.99
6498;BMP280;3282;48.358;10.958;2022-08-19T11:10:50;95893.06;;;20.01
6498;BMP280;3282;48.358;10.958;2022-08-19T11:13:17;95891.88;;;20.02
6498;BMP280;3282;48.358;10.958;2022-08-19T11:15:43;95885.38;;;20.00
6498;BMP280;3282;48.358;10.958;2022-08-19T11:18:13;95892.00;;;19.99
6498;BMP280;3282;48.358;10.958;2022-08-19T11:20:40;95895.16;;;19.97
6498;BMP280;3282;48.358;10.958;2022-08-19T11:23:06;95894.25;;;19.87
6498;BMP280;3282;48.358;10.958;2022-08-19T11:25:33;95888.06;;;19.87
6498;BMP280;3282;48.358;10.958;2022-08-19T11:28:00;95874.16;;;19.85
6498;BMP280;3282;48.358;10.958;2022-08-19T11:30:27;95873.31;;;19.88
6498;BMP280;3282;48.358;10.958;2022-08-19T11:32:54;95865.59;;;19.86
6498;BMP280;3282;48.358;10.958;2022-08-19T11:35:20;95842.78;;;19.84
6498;BMP280;3282;48.358;10.958;2022-08-19T11:37:48;95834.75;;;19.80
6498;BMP280;3282;48.358;10.958;2022-08-19T11:40:14;95838.66;;;19.79
6498;BMP280;3282;48.358;10.958;2022-08-19T11:42:41;95842.66;;;19.74
6498;BMP280;3282;48.358;10.958;2022-08-19T11:45:27;95848.09;;;19.74
6498;BMP280;3282;48.358;10.958;2022-08-19T11:47:55;95845.72;;;19.76
6498;BMP280;3282;48.358;10.958;2022-08-19T11:50:24;95837.88;;;19.79
6498;BMP280;3282;48.358;10.958;2022-08-19T11:52:54;95840.06;;;19.84
6498;BMP280;3282;48.358;10.958;2022-08-19T11:55:21;95839.75;;;19.82
6498;BMP280;3282;48.358;10.958;2022-08-19T11:57:48;95845.06;;;19.85
6498;BMP280;3282;48.358;10.958;2022-08-19T12:00:15;95841.47;;;19.88
6498;BMP280;3282;48.358;10.958;2022-08-19T12:02:42;95838.88;;;19.98
6498;BMP280;3282;48.358;10.958;2022-08-19T12:05:09;95841.81;;;20.03
6498;BMP280;3282;48.358;10.958;2022-08-19T12:07:39;95849.41;;;20.09
6498;BMP280;3282;48.358;10.958;2022-08-19T12:10:07;95849.97;;;20.16
6498;BMP280;3282;48.358;10.958;2022-08-19T12:12:36;95843.88;;;20.25
6498;BMP280;3282;48.358;10.958;2022-08-19T12:15:06;95849.94;;;20.29
6498;BMP280;3282;48.358;10.958;2022-08-19T12:17:36;95843.84;;;20.38
6498;BMP280;3282;48.358;10.958;2022-08-19T12:20:04;95851.00;;;20.45
6498;BMP280;3282;48.358;10.958;2022-08-19T12:22:30;95860.50;;;20.40
6498;BMP280;3282;48.358;10.958;2022-08-19T12:24:57;95859.72;;;20.40
6498;BMP280;3282;48.358;10.958;2022-08-19T12:27:24;95858.84;;;20.43
6498;BMP280;3282;48.358;10.958;2022-08-19T12:30:09;95859.16;;;20.45
6498;BMP280;3282;48.358;10.958;2022-08-19T12:32:36;95861.34;;;20.50
6498;BMP280;3282;48.358;10.958;2022-08-19T12:35:04;95872.41;;;20.56
6498;BMP280;3282;48.358;10.958;2022-08-19T12:37:31;95873.06;;;20.60
6498;BMP280;3282;48.358;10.958;2022-08-19T12:39:58;95880.31;;;20.63
6498;BMP280;3282;48.358;10.958;2022-08-19T12:42:25;95878.81;;;20.62
6498;BMP280;3282;48.358;10.958;2022-08-19T12:44:52;95885.34;;;20.65
6498;BMP280;3282;48.358;10.958;2022-08-19T12:47:19;95887.28;;;20.64
6498;BMP280;3282;48.358;10.958;2022-08-19T12:49:48;95890.13;;;20.61
6498;BMP280;3282;48.358;10.958;2022-08-19T12:52:22;95885.13;;;20.46
6498;BMP280;3282;48.358;10.958;2022-08-19T12:54:51;95895.91;;;20.50
6498;BMP280;3282;48.358;10.958;2022-08-19T12:57:24;95896.66;;;20.50
6498;BMP280;3282;48.358;10.958;2022-08-19T13:00:07;95901.56;;;20.42
6498;BMP280;3282;48.358;10.958;2022-08-19T13:02:41;95913.19;;;20.43
6498;BMP280;3282;48.358;10.958;2022-08-19T13:05:16;95906.56;;;20.44
6498;BMP280;3282;48.358;10.958;2022-08-19T13:07:44;95903.41;;;20.46
6498;BMP280;3282;48.358;10.958;2022-08-19T13:10:13;95905.56;;;20.51
6498;BMP280;3282;48.358;10.958;2022-08-19T13:12:42;95907.09;;;20.52
6498;BMP280;3282;48.358;10.958;2022-08-19T13:15:10;95905.00;;;20.56
6498;BMP280;3282;48.358;10.958;2022-08-19T13:17:38;95889.34;;;20.60
6498;BMP280;3282;48.358;10.958;2022-08-19T13:20:06;95881.63;;;20.72
6498;BMP280;3282;48.358;10.958;2022-08-19T13:22:37;95874.63;;;20.83
6498;BMP280;3282;48.358;10.958;2022-08-19T13:25:05;95874.59;;;20.96
6498;BMP280;3282;48.358;10.958;2022-08-19T13:27:31;95869.34;;;21.02
6498;BMP280;3282;48.358;10.958;2022-08-19T13:29:59;95848.16;;;20.97
6498;BMP280;3282;48.358;10.958;2022-08-19T13:32:44;95876.09;;;21.20
6498;BMP280;3282;48.358;10.958;2022-08-19T13:35:29;95880.50;;;21.17
6498;BMP280;3282;48.358;10.958;2022-08-19T13:37:56;95876.94;;;21.07
6498;BMP280;3282;48.358;10.958;2022-08-19T13:40:24;95870.94;;;21.13
6498;BMP280;3282;48.358;10.958;2022-08-19T13:42:54;95886.56;;;21.21
6498;BMP280;3282;48.358;10.958;2022-08-19T13:45:24;95887.63;;;21.24
6498;BMP280;3282;48.358;10.958;2022-08-19T13:47:53;95881.75;;;21.26
6498;BMP280;3282;48.358;10.958;2022-08-19T13:50:27;95878.59;;;21.27
6498;BMP280;3282;48.358;10.958;2022-08-19T13:52:55;95870.88;;;21.26
6498;BMP280;3282;48.358;10.958;2022-08-19T13:55:23;95865.31;;;21.29
6498;BMP280;3282;48.358;10.958;2022-08-19T13:57:55;95864.00;;;21.34
6498;BMP280;3282;48.358;10.958;2022-08-19T14:00:24;95863.09;;;21.37
6498;BMP280;3282;48.358;10.958;2022-08-19T14:02:54;95870.50;;;21.36
6498;BMP280;3282;48.358;10.958;2022-08-19T14:05:23;95866.28;;;21.35
6498;BMP280;3282;48.358;10.958;2022-08-19T14:07:51;95868.59;;;21.24
6498;BMP280;3282;48.358;10.958;2022-08-19T14:10:18;95885.25;;;21.26
6498;BMP280;3282;48.358;10.958;2022-08-19T14:12:46;95891.25;;;21.21
6498;BMP280;3282;48.358;10.958;2022-08-19T14:15:14;95894.34;;;21.10
6498;BMP280;3282;48.358;10.958;2022-08-19T14:17:43;95904.38;;;21.00
6498;BMP280;3282;48.358;10.958;2022-08-19T14:20:11;95911.88;;;20.96
6498;BMP280;3282;48.358;10.958;2022-08-19T14:22:45;95903.53;;;20.90
6498;BMP280;3282;48.358;10.958;2022-08-19T14:25:19;95908.69;;;20.88
6498;BMP280;3282;48.358;10.958;2022-08-19T14:27:46;95902.59;;;20.84
6498;BMP280;3282;48.358;10.958;2022-08-19T14:30:17;95905.88;;;20.79
6498;BMP280;3282;48.358;10.958;2022-08-19T14:32:44;95904.44;;;20.74
6498;BMP280;3282;48.358;10.958;2022-08-19T14:35:13;95904.13;;;20.72
6498;BMP280;3282;48.358;10.958;2022-08-19T14:37:42;95905.66;;;20.73
6498;BMP280;3282;48.358;10.958;2022-08-19T14:40:13;95911.31;;;20.66
6498;BMP280;3282;48.358;10.958;2022-08-19T14:42:40;95912.53;;;20.65
6498;BMP280;3282;48.358;10.958;2022-08-19T14:45:08;95898.16;;;20.64
6498;BMP280;3282;48.358;10.958;2022-08-19T14:47:35;95912.09;;;20.66
6498;BMP280;3282;48.358;10.958;2022-08-19T14:50:10;95913.16;;;20.69
6498;BMP280;3282;48.358;10.958;2022-08-19T14:52:47;95912.72;;;20.70